sensor_id;sensor_type;location;lat;lon;timestamp;P1;durP1;ratioP1;P2;durP2;ratioP2
40959;SDS011;27842;52.272;8.052;2024-03-23T00:56:03;26.38;;;10.32;;
40959;SDS011;27842;52.272;8.052;2024-03-23T00:58:29;27.42;;;9.77;;
40959;SDS011;27842;52.272;8.052;2024-03-23T01:00:55;26.98;;;9.63;;
40959;SDS011;27842;52.272;8.052;2024-03-23T01:03:21;28.35;;;9.60;;
40959;SDS011;27842;52.272;8.052;2024-03-23T01:05:46;22.02;;;6.40;;
40959;SDS011;27842;52.272;8.052;2024-03-23T01:08:13;20.48;;;6.10;;
40959;SDS011;27842;52.272;8.052;2024-03-23T01:10:39;22.95;;;6.30;;
40959;SDS011;27842;52.272;8.052;2024-03-23T01:13:05;21.20;;;5.38;;
40959;SDS011;27842;52.272;8.052;2024-03-23T01:15:30;17.17;;;5.00;;
40959;SDS011;27842;52.272;8.052;2024-03-23T01:17:56;19.58;;;5.20;;
40959;SDS011;27842;52.272;8.052;2024-03-23T01:20:21;21.65;;;4.60;;
40959;SDS011;27842;52.272;8.052;2024-03-23T01:22:47;17.40;;;4.57;;
40959;SDS011;27842;52.272;8.052;2024-03-23T01:25:12;19.02;;;5.30;;
40959;SDS011;27842;52.272;8.052;2024-03-23T01:27:38;23.17;;;5.57;;
40959;SDS011;27842;52.272;8.052;2024-03-23T01:30:03;20.88;;;5.72;;
40959;SDS011;27842;52.272;8.052;2024-03-23T01:32:29;28.02;;;7.57;;
40959;SDS011;27842;52.272;8.052;2024-03-23T01:34:55;21.00;;;5.63;;
40959;SDS011;27842;52.272;8.052;2024-03-23T01:37:20;21.63;;;5.55;;
40959;SDS011;27842;52.272;8.052;2024-03-23T01:39:46;22.48;;;5.60;;
40959;SDS011;27842;52.272;8.052;2024-03-23T01:42:12;22.38;;;6.22;;
40959;SDS011;27842;52.272;8.052;2024-03-23T01:44:37;21.15;;;5.60;;
40959;SDS011;27842;52.272;8.052;2024-03-23T01:47:03;19.13;;;5.18;;
40959;SDS011;27842;52.272;8.052;2024-03-23T01:49:28;21.90;;;5.03;;
40959;SDS011;27842;52.272;8.052;2024-03-23T01:51:54;22.25;;;5.20;;
40959;SDS011;27842;52.272;8.052;2024-03-23T01:54:20;19.63;;;5.15;;
40959;SDS011;27842;52.272;8.052;2024-03-23T01:56:46;19.40;;;5.28;;
40959;SDS011;27842;52.272;8.052;2024-03-23T01:59:13;17.52;;;5.22;;
40959;SDS011;27842;52.272;8.052;2024-03-23T02:01:39;18.48;;;5.20;;
40959;SDS011;27842;52.272;8.052;2024-03-23T02:04:04;18.27;;;4.60;;
40959;SDS011;27842;52.272;8.052;2024-03-23T02:06:30;17.35;;;5.97;;
40959;SDS011;27842;52.272;8.052;2024-03-23T02:08:55;17.52;;;5.15;;
40959;SDS011;27842;52.272;8.052;2024-03-23T02:11:21;17.63;;;4.18;;
40959;SDS011;27842;52.272;8.052;2024-03-23T02:13:47;17.85;;;4.50;;
40959;SDS011;27842;52.272;8.052;2024-03-23T02:16:13;17.70;;;4.70;;
40959;SDS011;27842;52.272;8.052;2024-03-23T02:18:38;16.55;;;4.53;;
40959;SDS011;27842;52.272;8.052;2024-03-23T02:21:04;19.05;;;5.07;;
40959;SDS011;27842;52.272;8.052;2024-03-23T02:23:30;21.02;;;5.22;;
40959;SDS011;27842;52.272;8.052;2024-03-23T02:25:55;19.20;;;4.95;;
40959;SDS011;27842;52.272;8.052;2024-03-23T02:28:21;22.70;;;5.05;;
40959;SDS011;27842;52.272;8.052;2024-03-23T02:30:48;16.75;;;5.05;;
40959;SDS011;27842;52.272;8.052;2024-03-23T02:33:14;17.60;;;4.45;;
40959;SDS011;27842;52.272;8.052;2024-03-23T02:35:40;16.30;;;4.43;;
40959;SDS011;27842;52.272;8.052;2024-03-23T02:38:05;14.90;;;3.85;;
40959;SDS011;27842;52.272;8.052;2024-03-23T02:40:31;17.17;;;4.05;;
40959;SDS011;27842;52.272;8.052;2024-03-23T02:42:56;17.58;;;3.78;;
40959;SDS011;27842;52.272;8.052;2024-03-23T02:45:22;16.35;;;4.10;;
40959;SDS011;27842;52.272;8.052;2024-03-23T02:47:47;16.98;;;3.70;;
40959;SDS011;27842;52.272;8.052;2024-03-23T02:52:45;18.67;;;4.68;;
40959;SDS011;27842;52.272;8.052;2024-03-23T02:55:11;18.20;;;4.65;;
40959;SDS011;27842;52.272;8.052;2024-03-23T02:57:37;17.83;;;4.88;;
40959;SDS011;27842;52.272;8.052;2024-03-23T03:00:03;21.35;;;4.57;;
40959;SDS011;27842;52.272;8.052;2024-03-23T03:02:29;22.65;;;4.68;;
40959;SDS011;27842;52.272;8.052;2024-03-23T03:04:54;19.35;;;4.32;;
40959;SDS011;27842;52.272;8.052;2024-03-23T03:07:20;18.05;;;4.20;;
40959;SDS011;27842;52.272;8.052;2024-03-23T03:09:45;17.23;;;4.45;;
40959;SDS011;27842;52.272;8.052;2024-03-23T03:12:11;18.10;;;4.32;;
40959;SDS011;27842;52.272;8.052;2024-03-23T03:14:36;15.55;;;4.57;;
40959;SDS011;27842;52.272;8.052;2024-03-23T03:17:02;18.25;;;4.38;;
40959;SDS011;27842;52.272;8.052;2024-03-23T03:19:29;24.27;;;5.22;;
40959;SDS011;27842;52.272;8.052;2024-03-23T03:21:55;26.33;;;5.50;;
40959;SDS011;27842;52.272;8.052;2024-03-23T03:24:21;20.23;;;5.10;;
40959;SDS011;27842;52.272;8.052;2024-03-23T03:26:46;20.80;;;5.00;;
40959;SDS011;27842;52.272;8.052;2024-03-23T03:29:12;21.65;;;4.25;;
40959;SDS011;27842;52.272;8.052;2024-03-23T03:31:38;21.67;;;4.60;;
40959;SDS011;27842;52.272;8.052;2024-03-23T03:34:04;18.83;;;5.22;;
40959;SDS011;27842;52.272;8.052;2024-03-23T03:36:30;20.58;;;5.65;;
40959;SDS011;27842;52.272;8.052;2024-03-23T03:38:55;17.80;;;4.50;;
40959;SDS011;27842;52.272;8.052;2024-03-23T03:41:21;20.75;;;4.40;;
40959;SDS011;27842;52.272;8.052;2024-03-23T03:43:46;22.02;;;4.53;;
40959;SDS011;27842;52.272;8.052;2024-03-23T03:46:12;21.13;;;4.38;;
40959;SDS011;27842;52.272;8.052;2024-03-23T03:48:37;17.80;;;4.63;;
40959;SDS011;27842;52.272;8.052;2024-03-23T03:51:03;17.27;;;4.60;;
40959;SDS011;27842;52.272;8.052;2024-03-23T03:53:29;19.85;;;4.57;;
40959;SDS011;27842;52.272;8.052;2024-03-23T03:55:55;17.15;;;4.30;;
40959;SDS011;27842;52.272;8.052;2024-03-23T03:58:21;18.67;;;4.63;;
40959;SDS011;27842;52.272;8.052;2024-03-23T04:00:47;20.17;;;4.50;;
40959;SDS011;27842;52.272;8.052;2024-03-23T04:03:12;22.45;;;4.18;;
40959;SDS011;27842;52.272;8.052;2024-03-23T04:05:38;19.17;;;4.70;;
40959;SDS011;27842;52.272;8.052;2024-03-23T04:08:04;15.68;;;4.75;;
40959;SDS011;27842;52.272;8.052;2024-03-23T04:10:32;24.17;;;4.60;;
40959;SDS011;27842;52.272;8.052;2024-03-23T04:12:58;19.48;;;4.63;;
40959;SDS011;27842;52.272;8.052;2024-03-23T04:15:24;21.05;;;4.93;;
40959;SDS011;27842;52.272;8.052;2024-03-23T04:17:49;21.60;;;4.45;;
40959;SDS011;27842;52.272;8.052;2024-03-23T04:20:16;22.23;;;4.68;;
40959;SDS011;27842;52.272;8.052;2024-03-23T04:22:42;19.25;;;5.05;;
40959;SDS011;27842;52.272;8.052;2024-03-23T04:25:08;17.70;;;4.32;;
40959;SDS011;27842;52.272;8.052;2024-03-23T04:27:35;19.98;;;5.53;;
40959;SDS011;27842;52.272;8.052;2024-03-23T04:30:02;21.63;;;4.72;;
40959;SDS011;27842;52.272;8.052;2024-03-23T04:32:29;24.85;;;5.40;;
40959;SDS011;27842;52.272;8.052;2024-03-23T04:34:55;23.83;;;6.53;;
40959;SDS011;27842;52.272;8.052;2024-03-23T04:37:21;19.40;;;4.82;;
40959;SDS011;27842;52.272;8.052;2024-03-23T04:39:47;23.63;;;5.72;;
40959;SDS011;27842;52.272;8.052;2024-03-23T04:42:14;20.95;;;5.53;;
40959;SDS011;27842;52.272;8.052;2024-03-23T04:44:41;27.70;;;5.60;;
40959;SDS011;27842;52.272;8.052;2024-03-23T04:47:07;24.58;;;5.60;;
40959;SDS011;27842;52.272;8.052;2024-03-23T04:49:32;18.25;;;5.30;;
40959;SDS011;27842;52.272;8.052;2024-03-23T04:51:58;22.35;;;5.45;;
40959;SDS011;27842;52.272;8.052;2024-03-23T04:54:23;23.70;;;5.82;;
40959;SDS011;27842;52.272;8.052;2024-03-23T04:56:49;26.42;;;5.18;;
40959;SDS011;27842;52.272;8.052;2024-03-23T04:59:15;24.05;;;5.90;;
40959;SDS011;27842;52.272;8.052;2024-03-23T05:01:40;23.80;;;6.38;;
40959;SDS011;27842;52.272;8.052;2024-03-23T05:04:07;27.15;;;6.40;;
40959;SDS011;27842;52.272;8.052;2024-03-23T05:06:33;26.40;;;7.03;;
40959;SDS011;27842;52.272;8.052;2024-03-23T05:08:59;23.05;;;5.65;;
40959;SDS011;27842;52.272;8.052;2024-03-23T05:11:26;24.77;;;5.97;;
40959;SDS011;27842;52.272;8.052;2024-03-23T05:13:52;24.58;;;7.05;;
40959;SDS011;27842;52.272;8.052;2024-03-23T05:16:17;22.75;;;5.82;;
40959;SDS011;27842;52.272;8.052;2024-03-23T05:18:43;24.33;;;6.25;;
40959;SDS011;27842;52.272;8.052;2024-03-23T05:21:08;23.98;;;5.82;;
40959;SDS011;27842;52.272;8.052;2024-03-23T05:23:34;30.40;;;7.05;;
40959;SDS011;27842;52.272;8.052;2024-03-23T05:26:00;25.42;;;6.10;;
40959;SDS011;27842;52.272;8.052;2024-03-23T05:28:25;27.98;;;6.72;;
40959;SDS011;27842;52.272;8.052;2024-03-23T05:30:51;22.20;;;5.85;;
40959;SDS011;27842;52.272;8.052;2024-03-23T05:33:21;26.10;;;6.35;;
40959;SDS011;27842;52.272;8.052;2024-03-23T05:35:55;26.23;;;5.55;;
40959;SDS011;27842;52.272;8.052;2024-03-23T05:38:21;24.90;;;6.40;;
40959;SDS011;27842;52.272;8.052;2024-03-23T05:40:54;28.40;;;6.88;;
40959;SDS011;27842;52.272;8.052;2024-03-23T05:43:23;27.00;;;5.55;;
40959;SDS011;27842;52.272;8.052;2024-03-23T05:45:59;28.25;;;5.88;;
40959;SDS011;27842;52.272;8.052;2024-03-23T05:48:26;27.67;;;5.93;;
40959;SDS011;27842;52.272;8.052;2024-03-23T05:50:53;24.00;;;6.18;;
40959;SDS011;27842;52.272;8.052;2024-03-23T05:53:18;26.63;;;5.55;;
40959;SDS011;27842;52.272;8.052;2024-03-23T05:58:17;23.40;;;6.18;;
40959;SDS011;27842;52.272;8.052;2024-03-23T06:00:43;23.92;;;5.63;;
40959;SDS011;27842;52.272;8.052;2024-03-23T06:03:09;23.75;;;7.18;;
40959;SDS011;27842;52.272;8.052;2024-03-23T06:05:35;23.48;;;5.63;;
40959;SDS011;27842;52.272;8.052;2024-03-23T06:08:04;29.00;;;6.50;;
40959;SDS011;27842;52.272;8.052;2024-03-23T06:10:30;26.88;;;7.50;;
40959;SDS011;27842;52.272;8.052;2024-03-23T06:12:56;27.00;;;6.22;;
40959;SDS011;27842;52.272;8.052;2024-03-23T06:15:23;24.67;;;6.63;;
40959;SDS011;27842;52.272;8.052;2024-03-23T06:17:49;28.13;;;6.57;;
40959;SDS011;27842;52.272;8.052;2024-03-23T06:20:14;24.83;;;7.32;;
40959;SDS011;27842;52.272;8.052;2024-03-23T06:22:40;23.65;;;7.28;;
40959;SDS011;27842;52.272;8.052;2024-03-23T06:25:06;25.83;;;7.22;;
40959;SDS011;27842;52.272;8.052;2024-03-23T06:27:32;26.17;;;7.68;;
40959;SDS011;27842;52.272;8.052;2024-03-23T06:29:58;28.30;;;9.75;;
40959;SDS011;27842;52.272;8.052;2024-03-23T06:32:24;30.23;;;8.23;;
40959;SDS011;27842;52.272;8.052;2024-03-23T06:34:50;27.88;;;9.07;;
40959;SDS011;27842;52.272;8.052;2024-03-23T06:37:15;29.05;;;8.80;;
40959;SDS011;27842;52.272;8.052;2024-03-23T06:39:41;25.42;;;7.72;;
40959;SDS011;27842;52.272;8.052;2024-03-23T06:42:07;29.40;;;8.45;;
40959;SDS011;27842;52.272;8.052;2024-03-23T06:44:33;26.77;;;8.32;;
40959;SDS011;27842;52.272;8.052;2024-03-23T06:46:59;29.70;;;7.88;;
40959;SDS011;27842;52.272;8.052;2024-03-23T06:49:24;26.53;;;8.20;;
40959;SDS011;27842;52.272;8.052;2024-03-23T06:51:50;30.37;;;9.40;;
40959;SDS011;27842;52.272;8.052;2024-03-23T06:54:19;29.48;;;9.15;;
40959;SDS011;27842;52.272;8.052;2024-03-23T06:59:10;30.50;;;7.80;;
40959;SDS011;27842;52.272;8.052;2024-03-23T07:01:37;31.95;;;8.88;;
40959;SDS011;27842;52.272;8.052;2024-03-23T07:04:02;26.10;;;8.53;;
40959;SDS011;27842;52.272;8.052;2024-03-23T07:06:29;26.00;;;7.80;;
40959;SDS011;27842;52.272;8.052;2024-03-23T07:08:55;25.58;;;8.35;;
40959;SDS011;27842;52.272;8.052;2024-03-23T07:11:20;26.27;;;8.95;;
40959;SDS011;27842;52.272;8.052;2024-03-23T07:13:49;26.48;;;8.65;;
40959;SDS011;27842;52.272;8.052;2024-03-23T07:16:15;28.67;;;8.63;;
40959;SDS011;27842;52.272;8.052;2024-03-23T07:18:41;27.13;;;8.00;;
40959;SDS011;27842;52.272;8.052;2024-03-23T07:21:07;21.50;;;7.75;;
40959;SDS011;27842;52.272;8.052;2024-03-23T07:23:33;34.92;;;9.18;;
40959;SDS011;27842;52.272;8.052;2024-03-23T07:25:59;27.77;;;9.38;;
40959;SDS011;27842;52.272;8.052;2024-03-23T07:28:26;26.17;;;8.48;;
40959;SDS011;27842;52.272;8.052;2024-03-23T07:33:41;26.05;;;8.00;;
40959;SDS011;27842;52.272;8.052;2024-03-23T07:36:11;27.77;;;8.23;;
40959;SDS011;27842;52.272;8.052;2024-03-23T07:38:39;24.08;;;7.75;;
40959;SDS011;27842;52.272;8.052;2024-03-23T07:41:07;23.58;;;7.70;;
40959;SDS011;27842;52.272;8.052;2024-03-23T07:43:33;27.35;;;8.52;;
40959;SDS011;27842;52.272;8.052;2024-03-23T07:45:59;26.00;;;8.13;;
40959;SDS011;27842;52.272;8.052;2024-03-23T07:48:26;29.63;;;8.30;;
40959;SDS011;27842;52.272;8.052;2024-03-23T07:53:28;27.42;;;7.30;;
40959;SDS011;27842;52.272;8.052;2024-03-23T07:55:54;25.08;;;7.15;;
40959;SDS011;27842;52.272;8.052;2024-03-23T07:58:21;27.35;;;7.35;;
40959;SDS011;27842;52.272;8.052;2024-03-23T08:00:46;23.50;;;7.97;;
40959;SDS011;27842;52.272;8.052;2024-03-23T08:03:12;24.77;;;7.45;;
40959;SDS011;27842;52.272;8.052;2024-03-23T08:05:38;28.40;;;8.05;;
40959;SDS011;27842;52.272;8.052;2024-03-23T08:08:03;26.20;;;8.23;;
40959;SDS011;27842;52.272;8.052;2024-03-23T08:10:29;24.88;;;8.43;;
40959;SDS011;27842;52.272;8.052;2024-03-23T08:12:54;22.00;;;7.40;;
40959;SDS011;27842;52.272;8.052;2024-03-23T08:15:20;27.20;;;7.53;;
40959;SDS011;27842;52.272;8.052;2024-03-23T08:17:45;22.75;;;6.45;;
40959;SDS011;27842;52.272;8.052;2024-03-23T08:20:11;26.30;;;7.38;;
40959;SDS011;27842;52.272;8.052;2024-03-23T08:22:37;22.23;;;7.10;;
40959;SDS011;27842;52.272;8.052;2024-03-23T08:25:02;20.48;;;6.07;;
40959;SDS011;27842;52.272;8.052;2024-03-23T08:27:28;22.05;;;6.15;;
40959;SDS011;27842;52.272;8.052;2024-03-23T08:29:53;23.17;;;5.90;;
40959;SDS011;27842;52.272;8.052;2024-03-23T08:32:19;22.08;;;6.28;;
40959;SDS011;27842;52.272;8.052;2024-03-23T08:34:44;19.10;;;5.80;;
40959;SDS011;27842;52.272;8.052;2024-03-23T08:37:10;21.30;;;6.03;;
40959;SDS011;27842;52.272;8.052;2024-03-23T08:39:35;22.30;;;6.35;;
40959;SDS011;27842;52.272;8.052;2024-03-23T08:42:01;23.35;;;6.10;;
40959;SDS011;27842;52.272;8.052;2024-03-23T08:44:26;19.40;;;5.18;;
40959;SDS011;27842;52.272;8.052;2024-03-23T08:46:52;22.27;;;6.25;;
40959;SDS011;27842;52.272;8.052;2024-03-23T08:49:21;15.98;;;5.00;;
40959;SDS011;27842;52.272;8.052;2024-03-23T08:51:46;19.83;;;5.80;;
40959;SDS011;27842;52.272;8.052;2024-03-23T08:54:12;17.35;;;5.30;;
40959;SDS011;27842;52.272;8.052;2024-03-23T08:56:37;18.35;;;4.70;;
40959;SDS011;27842;52.272;8.052;2024-03-23T08:59:03;17.35;;;4.65;;
40959;SDS011;27842;52.272;8.052;2024-03-23T09:01:29;18.08;;;4.78;;
40959;SDS011;27842;52.272;8.052;2024-03-23T09:03:55;15.85;;;4.38;;
40959;SDS011;27842;52.272;8.052;2024-03-23T09:06:20;18.88;;;4.30;;
40959;SDS011;27842;52.272;8.052;2024-03-23T09:08:46;17.25;;;3.78;;
40959;SDS011;27842;52.272;8.052;2024-03-23T09:11:12;17.27;;;4.57;;
40959;SDS011;27842;52.272;8.052;2024-03-23T09:13:38;18.00;;;4.50;;
40959;SDS011;27842;52.272;8.052;2024-03-23T09:16:05;15.82;;;4.30;;
40959;SDS011;27842;52.272;8.052;2024-03-23T09:18:31;14.25;;;4.32;;
40959;SDS011;27842;52.272;8.052;2024-03-23T09:20:58;14.68;;;3.70;;
40959;SDS011;27842;52.272;8.052;2024-03-23T09:23:24;17.48;;;3.72;;
40959;SDS011;27842;52.272;8.052;2024-03-23T09:25:50;19.98;;;3.85;;
40959;SDS011;27842;52.272;8.052;2024-03-23T09:28:15;14.77;;;3.83;;
40959;SDS011;27842;52.272;8.052;2024-03-23T09:30:41;16.27;;;4.07;;
40959;SDS011;27842;52.272;8.052;2024-03-23T09:33:12;12.90;;;3.40;;
40959;SDS011;27842;52.272;8.052;2024-03-23T09:35:39;19.08;;;4.47;;
40959;SDS011;27842;52.272;8.052;2024-03-23T09:38:05;16.65;;;3.67;;
40959;SDS011;27842;52.272;8.052;2024-03-23T09:40:34;19.48;;;3.97;;
40959;SDS011;27842;52.272;8.052;2024-03-23T09:43:07;24.45;;;4.65;;
40959;SDS011;27842;52.272;8.052;2024-03-23T09:45:34;18.10;;;3.80;;
40959;SDS011;27842;52.272;8.052;2024-03-23T09:48:03;19.10;;;3.75;;
40959;SDS011;27842;52.272;8.052;2024-03-23T09:50:29;15.40;;;3.63;;
40959;SDS011;27842;52.272;8.052;2024-03-23T09:52:55;18.13;;;3.67;;
40959;SDS011;27842;52.272;8.052;2024-03-23T09:55:21;13.48;;;3.30;;
40959;SDS011;27842;52.272;8.052;2024-03-23T09:57:46;15.45;;;3.13;;
40959;SDS011;27842;52.272;8.052;2024-03-23T10:00:12;12.85;;;3.30;;
40959;SDS011;27842;52.272;8.052;2024-03-23T10:02:38;13.55;;;3.38;;
40959;SDS011;27842;52.272;8.052;2024-03-23T10:05:04;20.25;;;4.55;;
40959;SDS011;27842;52.272;8.052;2024-03-23T10:07:44;13.90;;;3.22;;
40959;SDS011;27842;52.272;8.052;2024-03-23T10:10:13;16.83;;;3.75;;
40959;SDS011;27842;52.272;8.052;2024-03-23T10:12:44;18.00;;;3.70;;
40959;SDS011;27842;52.272;8.052;2024-03-23T10:15:19;15.25;;;3.28;;
40959;SDS011;27842;52.272;8.052;2024-03-23T10:17:45;15.43;;;3.20;;
40959;SDS011;27842;52.272;8.052;2024-03-23T10:20:10;13.95;;;3.20;;
40959;SDS011;27842;52.272;8.052;2024-03-23T10:22:37;15.25;;;3.45;;
40959;SDS011;27842;52.272;8.052;2024-03-23T10:25:09;14.20;;;3.30;;
40959;SDS011;27842;52.272;8.052;2024-03-23T10:27:36;14.60;;;2.85;;
40959;SDS011;27842;52.272;8.052;2024-03-23T10:30:11;16.33;;;3.63;;
40959;SDS011;27842;52.272;8.052;2024-03-23T10:32:39;15.68;;;3.17;;
40959;SDS011;27842;52.272;8.052;2024-03-23T10:37:44;9.63;;;2.72;;
40959;SDS011;27842;52.272;8.052;2024-03-23T10:40:11;13.43;;;2.83;;
40959;SDS011;27842;52.272;8.052;2024-03-23T10:42:37;13.07;;;3.05;;
40959;SDS011;27842;52.272;8.052;2024-03-23T10:45:04;15.48;;;2.85;;
40959;SDS011;27842;52.272;8.052;2024-03-23T10:47:30;11.10;;;2.63;;
40959;SDS011;27842;52.272;8.052;2024-03-23T10:49:57;10.13;;;2.22;;
40959;SDS011;27842;52.272;8.052;2024-03-23T10:52:22;8.05;;;2.55;;
40959;SDS011;27842;52.272;8.052;2024-03-23T10:54:48;9.43;;;2.10;;
40959;SDS011;27842;52.272;8.052;2024-03-23T10:57:17;7.88;;;2.00;;
40959;SDS011;27842;52.272;8.052;2024-03-23T10:59:46;6.65;;;1.92;;
40959;SDS011;27842;52.272;8.052;2024-03-23T11:02:19;6.95;;;2.35;;
40959;SDS011;27842;52.272;8.052;2024-03-23T11:04:45;9.25;;;1.90;;
40959;SDS011;27842;52.272;8.052;2024-03-23T11:07:31;12.50;;;2.53;;
40959;SDS011;27842;52.272;8.052;2024-03-23T11:09:58;10.27;;;2.97;;
40959;SDS011;27842;52.272;8.052;2024-03-23T11:17:29;8.85;;;2.20;;
40959;SDS011;27842;52.272;8.052;2024-03-23T11:19:58;11.00;;;2.65;;
40959;SDS011;27842;52.272;8.052;2024-03-23T11:22:37;6.68;;;1.60;;
40959;SDS011;27842;52.272;8.052;2024-03-23T11:25:19;6.03;;;1.55;;
40959;SDS011;27842;52.272;8.052;2024-03-23T11:27:46;5.68;;;1.70;;
40959;SDS011;27842;52.272;8.052;2024-03-23T11:30:14;8.93;;;1.80;;
40959;SDS011;27842;52.272;8.052;2024-03-23T11:32:47;5.32;;;1.67;;
40959;SDS011;27842;52.272;8.052;2024-03-23T11:35:30;9.18;;;1.65;;
40959;SDS011;27842;52.272;8.052;2024-03-23T11:38:08;7.53;;;2.10;;
40959;SDS011;27842;52.272;8.052;2024-03-23T11:40:39;7.70;;;1.50;;
40959;SDS011;27842;52.272;8.052;2024-03-23T11:43:09;7.47;;;1.50;;
40959;SDS011;27842;52.272;8.052;2024-03-23T11:48:11;4.85;;;1.20;;
40959;SDS011;27842;52.272;8.052;2024-03-23T11:50:42;7.30;;;1.65;;
40959;SDS011;27842;52.272;8.052;2024-03-23T11:53:11;4.63;;;1.58;;
40959;SDS011;27842;52.272;8.052;2024-03-23T11:55:47;6.45;;;1.60;;
40959;SDS011;27842;52.272;8.052;2024-03-23T11:58:23;6.35;;;2.00;;
40959;SDS011;27842;52.272;8.052;2024-03-23T12:00:57;14.25;;;4.13;;
40959;SDS011;27842;52.272;8.052;2024-03-23T12:03:24;17.77;;;5.72;;
40959;SDS011;27842;52.272;8.052;2024-03-23T12:05:54;16.90;;;3.47;;
40959;SDS011;27842;52.272;8.052;2024-03-23T12:08:25;9.48;;;2.72;;
40959;SDS011;27842;52.272;8.052;2024-03-23T12:11:07;8.00;;;2.60;;
40959;SDS011;27842;52.272;8.052;2024-03-23T12:13:53;11.95;;;3.20;;
40959;SDS011;27842;52.272;8.052;2024-03-23T12:16:24;11.43;;;3.35;;
40959;SDS011;27842;52.272;8.052;2024-03-23T12:18:52;9.32;;;2.72;;
40959;SDS011;27842;52.272;8.052;2024-03-23T12:21:18;9.30;;;2.65;;
40959;SDS011;27842;52.272;8.052;2024-03-23T12:23:43;11.20;;;2.92;;
40959;SDS011;27842;52.272;8.052;2024-03-23T12:26:11;12.77;;;2.70;;
40959;SDS011;27842;52.272;8.052;2024-03-23T12:28:37;12.73;;;2.55;;
40959;SDS011;27842;52.272;8.052;2024-03-23T12:31:03;10.20;;;2.70;;
40959;SDS011;27842;52.272;8.052;2024-03-23T12:33:29;10.85;;;2.65;;
40959;SDS011;27842;52.272;8.052;2024-03-23T12:35:55;6.85;;;2.17;;
40959;SDS011;27842;52.272;8.052;2024-03-23T12:38:20;5.53;;;2.25;;
40959;SDS011;27842;52.272;8.052;2024-03-23T12:40:46;8.40;;;1.80;;
40959;SDS011;27842;52.272;8.052;2024-03-23T12:45:41;7.15;;;2.40;;
40959;SDS011;27842;52.272;8.052;2024-03-23T12:48:10;5.38;;;1.80;;
40959;SDS011;27842;52.272;8.052;2024-03-23T12:50:36;8.70;;;2.22;;
40959;SDS011;27842;52.272;8.052;2024-03-23T12:53:01;9.13;;;2.70;;
40959;SDS011;27842;52.272;8.052;2024-03-23T12:55:27;9.45;;;3.00;;
40959;SDS011;27842;52.272;8.052;2024-03-23T12:57:52;8.30;;;2.08;;
40959;SDS011;27842;52.272;8.052;2024-03-23T13:00:18;9.05;;;1.80;;
40959;SDS011;27842;52.272;8.052;2024-03-23T13:02:45;4.68;;;1.52;;
40959;SDS011;27842;52.272;8.052;2024-03-23T13:05:10;7.57;;;1.70;;
40959;SDS011;27842;52.272;8.052;2024-03-23T13:07:36;9.98;;;1.85;;
40959;SDS011;27842;52.272;8.052;2024-03-23T13:10:02;5.90;;;1.80;;
40959;SDS011;27842;52.272;8.052;2024-03-23T13:12:28;9.63;;;1.83;;
40959;SDS011;27842;52.272;8.052;2024-03-23T13:14:54;6.10;;;1.90;;
40959;SDS011;27842;52.272;8.052;2024-03-23T13:17:20;7.07;;;2.08;;
40959;SDS011;27842;52.272;8.052;2024-03-23T13:19:45;12.05;;;3.08;;
40959;SDS011;27842;52.272;8.052;2024-03-23T13:22:11;11.00;;;2.88;;
40959;SDS011;27842;52.272;8.052;2024-03-23T13:24:36;11.07;;;2.85;;
40959;SDS011;27842;52.272;8.052;2024-03-23T13:27:02;8.77;;;2.55;;
40959;SDS011;27842;52.272;8.052;2024-03-23T13:29:30;13.85;;;4.63;;
40959;SDS011;27842;52.272;8.052;2024-03-23T13:31:55;11.85;;;3.33;;
40959;SDS011;27842;52.272;8.052;2024-03-23T13:34:21;10.68;;;2.38;;
40959;SDS011;27842;52.272;8.052;2024-03-23T13:36:47;8.43;;;2.20;;
40959;SDS011;27842;52.272;8.052;2024-03-23T13:39:13;9.48;;;2.10;;
40959;SDS011;27842;52.272;8.052;2024-03-23T13:44:06;8.00;;;2.38;;
40959;SDS011;27842;52.272;8.052;2024-03-23T13:46:33;7.95;;;2.58;;
40959;SDS011;27842;52.272;8.052;2024-03-23T13:48:59;7.18;;;2.63;;
40959;SDS011;27842;52.272;8.052;2024-03-23T13:51:25;12.10;;;2.92;;
40959;SDS011;27842;52.272;8.052;2024-03-23T13:53:54;11.90;;;2.38;;
40959;SDS011;27842;52.272;8.052;2024-03-23T13:56:21;12.13;;;2.30;;
40959;SDS011;27842;52.272;8.052;2024-03-23T13:58:50;12.48;;;2.60;;
40959;SDS011;27842;52.272;8.052;2024-03-23T14:01:16;10.20;;;1.92;;
40959;SDS011;27842;52.272;8.052;2024-03-23T14:03:42;9.07;;;2.25;;
40959;SDS011;27842;52.272;8.052;2024-03-23T14:06:09;9.35;;;1.65;;
40959;SDS011;27842;52.272;8.052;2024-03-23T14:08:35;4.07;;;1.38;;
40959;SDS011;27842;52.272;8.052;2024-03-23T14:13:35;8.45;;;1.98;;
40959;SDS011;27842;52.272;8.052;2024-03-23T14:16:01;7.82;;;2.13;;
40959;SDS011;27842;52.272;8.052;2024-03-23T14:18:27;11.18;;;2.45;;
40959;SDS011;27842;52.272;8.052;2024-03-23T14:20:57;8.35;;;1.63;;
40959;SDS011;27842;52.272;8.052;2024-03-23T14:23:25;4.03;;;1.42;;
40959;SDS011;27842;52.272;8.052;2024-03-23T14:25:54;5.00;;;1.50;;
40959;SDS011;27842;52.272;8.052;2024-03-23T14:28:21;5.90;;;1.05;;
40959;SDS011;27842;52.272;8.052;2024-03-23T14:30:50;2.17;;;0.82;;
40959;SDS011;27842;52.272;8.052;2024-03-23T14:33:16;2.13;;;0.82;;
40959;SDS011;27842;52.272;8.052;2024-03-23T14:35:43;7.10;;;1.27;;
40959;SDS011;27842;52.272;8.052;2024-03-23T14:38:09;3.17;;;0.98;;
40959;SDS011;27842;52.272;8.052;2024-03-23T14:40:34;2.80;;;1.10;;
40959;SDS011;27842;52.272;8.052;2024-03-23T14:43:00;5.05;;;1.45;;
40959;SDS011;27842;52.272;8.052;2024-03-23T14:45:26;11.70;;;2.08;;
40959;SDS011;27842;52.272;8.052;2024-03-23T14:47:51;11.10;;;2.40;;
40959;SDS011;27842;52.272;8.052;2024-03-23T14:50:17;10.77;;;3.00;;
40959;SDS011;27842;52.272;8.052;2024-03-23T14:52:44;8.82;;;1.40;;
40959;SDS011;27842;52.272;8.052;2024-03-23T14:55:10;8.25;;;2.60;;
40959;SDS011;27842;52.272;8.052;2024-03-23T14:57:36;14.68;;;3.05;;
40959;SDS011;27842;52.272;8.052;2024-03-23T15:00:04;13.15;;;2.78;;
40959;SDS011;27842;52.272;8.052;2024-03-23T15:02:35;15.02;;;2.50;;
40959;SDS011;27842;52.272;8.052;2024-03-23T15:05:01;10.38;;;3.03;;
40959;SDS011;27842;52.272;8.052;2024-03-23T15:07:29;13.95;;;2.70;;
40959;SDS011;27842;52.272;8.052;2024-03-23T15:09:57;14.50;;;3.17;;
40959;SDS011;27842;52.272;8.052;2024-03-23T15:12:23;12.93;;;2.35;;
40959;SDS011;27842;52.272;8.052;2024-03-23T15:14:48;10.82;;;2.33;;
40959;SDS011;27842;52.272;8.052;2024-03-23T15:17:14;14.40;;;2.72;;
40959;SDS011;27842;52.272;8.052;2024-03-23T15:19:40;15.02;;;3.40;;
40959;SDS011;27842;52.272;8.052;2024-03-23T15:22:07;10.35;;;2.63;;
40959;SDS011;27842;52.272;8.052;2024-03-23T15:24:33;7.00;;;2.15;;
40959;SDS011;27842;52.272;8.052;2024-03-23T15:27:00;7.47;;;2.03;;
40959;SDS011;27842;52.272;8.052;2024-03-23T15:29:26;10.20;;;2.42;;
40959;SDS011;27842;52.272;8.052;2024-03-23T15:31:51;10.98;;;2.25;;
40959;SDS011;27842;52.272;8.052;2024-03-23T15:34:18;11.60;;;2.42;;
40959;SDS011;27842;52.272;8.052;2024-03-23T15:36:46;14.02;;;2.33;;
40959;SDS011;27842;52.272;8.052;2024-03-23T15:39:15;9.90;;;2.15;;
40959;SDS011;27842;52.272;8.052;2024-03-23T15:41:47;10.90;;;2.88;;
40959;SDS011;27842;52.272;8.052;2024-03-23T15:44:12;14.40;;;3.58;;
40959;SDS011;27842;52.272;8.052;2024-03-23T15:46:38;7.97;;;1.98;;
40959;SDS011;27842;52.272;8.052;2024-03-23T15:49:04;11.25;;;1.90;;
40959;SDS011;27842;52.272;8.052;2024-03-23T15:51:29;9.57;;;2.30;;
40959;SDS011;27842;52.272;8.052;2024-03-23T15:53:58;9.05;;;2.00;;
40959;SDS011;27842;52.272;8.052;2024-03-23T15:56:24;9.90;;;2.38;;
40959;SDS011;27842;52.272;8.052;2024-03-23T15:58:50;10.82;;;2.08;;
40959;SDS011;27842;52.272;8.052;2024-03-23T16:01:16;15.95;;;4.20;;